Flight Track Log - Related Links

Times and Time Zones

All times are in EDT time to prevent confusion due to time zone crossing. See the EJA922 flight status page for this flight to view local times or setup timezone preferences in your user account.

Time Position Orientation Groundspeed Altitude Reporting Facility
EDT Latitude Longitude Course Direction KTS MPH feet Rate Location/Type
Sat 03:54:52 PM 37.6425 -97.4275 217° Southwest 177 204 2,000  Level Kansas City Center
Sat 03:55:29 PM 37.6156 -97.4528 217° Southwest 195 224 4,200 3,083 Climbing Kansas City Center
Sat 03:56:04 PM 37.6119 -97.4917 263° West 216 249 5,700 2,845 Climbing Kansas City Center
Sat 03:57:06 PM 37.6169 -97.5783 274° West 242 278 8,800 2,806 Climbing Kansas City Center
Sat 03:58:08 PM 37.6208 -97.6769 273° West 271 312 11,500 2,732 Climbing Kansas City Center
Sat 03:59:09 PM 37.6164 -97.7975 267° West 340 391 14,400 2,732 Climbing Kansas City Center
Sat 04:00:11 PM 37.6083 -97.9178 265° West 341 392 17,100 2,419 Climbing Kansas City Center
Sat 04:01:13 PM 37.5994 -98.0419 265° West 348 400 19,400 2,341 Climbing Kansas City Center
Sat 04:02:14 PM 37.5903 -98.1708 265° West 360 414 21,900 2,244 Climbing Kansas City Center
Sat 04:03:16 PM 37.5808 -98.3022 265° West 370 426 24,000 2,032 Climbing Kansas City Center
Sat 04:04:18 PM 37.5711 -98.4381 265° West 381 438 26,100 1,984 Climbing Kansas City Center
Sat 04:05:20 PM 37.5608 -98.5769 265° West 392 451 28,100 2,244 Climbing Kansas City Center
Sat 04:06:21 PM 37.5472 -98.7475 264° West 403 464 30,700 2,341 Climbing Kansas City Center
Sat 04:07:23 PM 37.5364 -98.8908 265° West 409 471 32,900 1,597 Climbing Kansas City Center
Sat 04:08:25 PM 37.5244 -99.0361 264° West 414 476 34,000 2,244 Climbing Kansas City Center
Sat 04:09:26 PM 37.5131 -99.1828 264° West 417 480 37,500 2,488 Climbing Kansas City Center
Sat 04:10:28 PM 37.5028 -99.3200 265° West 399 459 39,100 1,355 Climbing Kansas City Center
Sat 04:11:30 PM 37.4906 -99.4633 264° West 390 449 40,300 1,113 Climbing Kansas City Center
Sat 04:12:32 PM 37.4767 -99.6189 264° West 398 458 41,400 976 Climbing Kansas City Center
Sat 04:13:33 PM 37.4653 -99.7528 264° West 401 461 42,300 780 Climbing Kansas City Center
Sat 04:14:35 PM 37.4519 -99.9092 264° West 402 463 43,000 339 Climbing Kansas City Center
Sat 04:15:37 PM 37.4400 -100.0464 264° West 408 470 43,000  Level Kansas City Center
Sat 04:16:39 PM 37.4278 -100.1883 264° West 419 482 43,000  Level Kansas City Center
Sat 04:17:40 PM 37.4133 -100.3522 264° West 422 486 43,000  Level Kansas City Center
Sat 04:18:42 PM 37.4006 -100.4925 264° West 421 484 43,000  Level Kansas City Center
Sat 04:19:44 PM 37.3858 -100.6561 264° West 420 483 43,000  Level Kansas City Center
Sat 04:20:46 PM 37.3728 -100.7933 263° West 413 475 43,000  Level Kansas City Center
Sat 04:21:48 PM 37.3597 -100.9333 263° West 415 478 43,000  Level Kansas City Center
Sat 04:22:50 PM 37.3433 -101.0967 263° West 418 481 43,000  Level Kansas City Center
Sat 04:23:51 PM 37.3294 -101.2369 263° West 420 483 43,000  Level Kansas City Center
Sat 04:24:53 PM 37.3131 -101.3997 263° West 419 482 43,000  Level Kansas City Center
Sat 04:25:55 PM 37.2992 -101.5392 263° West 420 483 43,000  Level Kansas City Center
Sat 04:26:57 PM 37.2822 -101.7017 263° West 421 484 43,000  Level Kansas City Center
Sat 04:27:59 PM 37.2675 -101.8419 263° West 422 486 43,000  Level Kansas City Center
Sat 04:29:01 PM 37.2536 -101.9836 263° West 424 488 43,000  Level Kansas City Center
Sat 04:30:03 PM 37.2347 -102.1467 262° West 424 488 43,000  Level Kansas City Center
Sat 04:31:05 PM 37.2197 -102.2881 262° West 426 490 43,000  Level Kansas City Center
Sat 04:32:06 PM 37.2033 -102.4519 263° West 425 489 43,000  Level Kansas City Center
Sat 04:33:08 PM 37.1872 -102.5922 262° West 425 489 43,000  Level Kansas City Center
Sat 04:34:10 PM 37.1692 -102.7572 262° West 428 493 43,000  Level Kansas City Center
Sat 04:35:03 PM 37.1550 -102.8900 262° West 425 489 43,000  Level Denver Center
Sat 04:36:05 PM 37.1386 -103.0331 262° West 430 495 43,000  Level Denver Center
Sat 04:37:06 PM 37.1214 -103.1769 262° West 435 501 43,000  Level Denver Center
Sat 04:37:36 PM 37.1139 -103.2508 263° West 436 502 43,000  Level Albuquerque Center
Sat 04:38:37 PM 37.0939 -103.4206 262° West 439 505 43,000  Level Albuquerque Center
Sat 04:39:39 PM 37.0767 -103.5642 261° West 435 501 43,000  Level Albuquerque Center
Sat 04:40:41 PM 37.0567 -103.7336 262° West 438 504 43,000  Level Albuquerque Center
Sat 04:41:42 PM 37.0386 -103.8775 261° West 436 502 43,000  Level Albuquerque Center
Sat 04:42:44 PM 37.0208 -104.0236 261° West 438 504 43,000  Level Albuquerque Center
Sat 04:43:46 PM 36.9994 -104.1967 261° West 446 513 43,000  Level Albuquerque Center
Sat 04:44:47 PM 36.9819 -104.3436 262° West 446 513 43,000  Level Albuquerque Center
Sat 04:45:20 PM 36.9686 -104.4411 260° West 442 509 43,000  Level Denver Center
Sat 04:46:22 PM 36.9503 -104.5839 261° West 436 502 43,000  Level Denver Center
Sat 04:47:23 PM 36.9314 -104.7303 261° West 442 509 43,000  Level Denver Center
Sat 04:48:25 PM 36.9106 -104.8894 261° West 448 516 43,000  Level Denver Center
Sat 04:49:27 PM 36.8894 -105.0433 260° West 450 518 43,000  Level Denver Center
Sat 04:50:29 PM 36.8664 -105.2247 261° West 453 521 43,000  Level Denver Center
Sat 04:51:30 PM 36.8472 -105.3731 261° West 452 520 43,000  Level Denver Center
Sat 04:52:32 PM 36.8228 -105.5425 260° West 446 513 43,000  Level Denver Center
Sat 04:53:34 PM 36.8025 -105.6886 260° West 446 513 43,000  Level Denver Center
Sat 04:54:36 PM 36.7833 -105.8364 261° West 449 517 43,000  Level Denver Center
Sat 04:55:37 PM 36.7586 -106.0078 260° West 451 519 43,000  Level Denver Center
Sat 04:56:39 PM 36.7397 -106.1478 260° West 452 520 43,000  Level Denver Center
Sat 04:57:41 PM 36.7178 -106.3017 260° West 453 521 43,000  Level Denver Center
Sat 04:58:42 PM 36.6911 -106.4886 260° West 457 526 43,000  Level Denver Center
Sat 04:59:44 PM 36.6703 -106.6333 260° West 455 524 43,000  Level Denver Center
Sat 05:00:46 PM 36.6436 -106.8072 259° West 457 526 43,000  Level Denver Center
Sat 05:01:48 PM 36.6233 -106.9572 260° West 459 528 43,000  Level Denver Center
Sat 05:02:49 PM 36.5964 -107.1303 259° West 457 526 43,000  Level Denver Center
Sat 05:03:51 PM 36.5744 -107.2761 259° West 451 519 43,000  Level Denver Center
Sat 05:04:53 PM 36.5528 -107.4203 259° West 445 512 43,000  Level Denver Center
Sat 05:05:54 PM 36.5261 -107.5894 259° West 445 512 43,000  Level Denver Center
Sat 05:06:56 PM 36.5042 -107.7367 260° West 451 519 43,000  Level Denver Center
Sat 05:07:58 PM 36.4769 -107.9108 259° West 458 527 43,000  Level Denver Center
Sat 05:08:59 PM 36.4531 -108.0603 259° West 460 529 43,000  Level Denver Center
Sat 05:10:01 PM 36.4256 -108.2353 259° West 465 535 43,000  Level Denver Center
Sat 05:11:03 PM 36.4014 -108.3806 258° West 454 522 43,000  Level Denver Center
Sat 05:12:05 PM 36.3750 -108.5508 259° West 451 519 43,000  Level Denver Center
Sat 05:13:06 PM 36.3511 -108.6947 258° West 450 518 43,000  Level Denver Center
Sat 05:14:08 PM 36.3244 -108.8628 259° West 449 517 43,000  Level Denver Center
Sat 05:15:10 PM 36.2997 -109.0067 258° West 451 519 43,000  Level Denver Center
Sat 05:16:11 PM 36.2714 -109.1739 258° West 449 517 43,000  Level Denver Center
Sat 05:17:13 PM 36.2467 -109.3181 258° West 450 518 43,000  Level Denver Center
Sat 05:18:15 PM 36.2225 -109.4628 258° West 450 518 43,000  Level Denver Center
Sat 05:19:16 PM 36.1928 -109.6317 258° West 450 518 43,000  Level Denver Center
Sat 05:20:18 PM 36.1672 -109.7769 258° West 452 520 43,000  Level Denver Center
Sat 05:21:20 PM 36.1375 -109.9469 258° West 453 521 43,000  Level Denver Center
Sat 05:22:22 PM 36.1111 -110.0919 257° West 452 520 43,000  Level Denver Center
Sat 05:23:23 PM 36.0853 -110.2406 258° West 452 520 43,000  Level Denver Center
Sat 05:24:25 PM 36.0583 -110.3919 258° West 452 520 43,000  Level Denver Center
Sat 05:25:27 PM 36.0247 -110.5747 257° West 454 522 43,000  Level Denver Center
Sat 05:26:28 PM 35.9981 -110.7269 258° West 454 522 43,000  Level Denver Center
Sat 05:27:30 PM 35.9703 -110.8794 257° West 456 525 43,000  Level Denver Center
Sat 05:28:32 PM 35.9417 -111.0319 257° West 456 525 43,000  Level Denver Center
Sat 05:29:34 PM 35.9122 -111.1847 257° West 457 526 43,000  Level Denver Center
Sat 05:30:35 PM 35.8839 -111.3378 257° West 457 526 43,000  Level Denver Center
Sat 05:31:37 PM 35.8558 -111.4906 257° West 458 527 43,000  Level Denver Center
Sat 05:32:39 PM 35.8203 -111.6742 257° West 459 528 43,000  Level Denver Center
Sat 05:33:45 PM 35.7931 -111.8139 257° West 455 524 43,000  Level Los Angeles Center
Sat 05:34:47 PM 35.7586 -111.9906 257° West 447 514 43,000  Level Los Angeles Center
Sat 05:35:49 PM 35.7294 -112.1408 257° West 453 521 43,000  Level Los Angeles Center
Sat 05:36:52 PM 35.6994 -112.2919 256° West 455 524 43,000  Level Los Angeles Center
Sat 05:37:53 PM 35.6703 -112.4439 257° West 461 531 43,000  Level Los Angeles Center
Sat 05:38:55 PM 35.6408 -112.5925 256° West 453 521 43,000  Level Los Angeles Center
Sat 05:39:57 PM 35.6067 -112.7592 256° West 446 513 43,000  Level Los Angeles Center
Sat 05:40:59 PM 35.5767 -112.9114 256° West 454 522 43,000  Level Los Angeles Center
Sat 05:42:01 PM 35.5431 -113.0711 256° West 448 516 43,000  Level Los Angeles Center
Sat 05:43:03 PM 35.5131 -113.2178 256° West 443 510 43,000  Level Los Angeles Center
Sat 05:44:04 PM 35.4800 -113.3817 256° West 451 519 43,000  Level Los Angeles Center
Sat 05:45:06 PM 35.4489 -113.5275 255° West 449 517 43,000  Level Los Angeles Center
Sat 05:46:08 PM 35.4181 -113.6739 256° West 450 518 43,000  Level Los Angeles Center
Sat 05:47:10 PM 35.3869 -113.8194 255° West 446 513 43,000  Level Los Angeles Center
Sat 05:48:12 PM 35.3517 -113.9881 256° West 448 516 43,000  Level Los Angeles Center
Sat 05:49:13 PM 35.3208 -114.1364 256° West 449 517 43,000 -634 Level Los Angeles Center
Sat 05:50:15 PM 35.2878 -114.2850 255° West 451 519 41,700 -1,839 Descending Los Angeles Center
Sat 05:51:17 PM 35.2542 -114.4450 256° West 479 551 39,200 -2,468 Descending Los Angeles Center
Sat 05:52:19 PM 35.2181 -114.6058 255° West 487 560 36,600 -2,468 Descending Los Angeles Center
Sat 05:53:21 PM 35.1825 -114.7683 255° West 491 565 34,100 -1,268 Descending Los Angeles Center
Sat 05:54:22 PM 35.1458 -114.9356 255° West 501 577 34,000 -49 Descending Los Angeles Center
Sat 05:55:24 PM 35.1022 -115.1314 255° West 498 573 34,000  Level Los Angeles Center
Sat 05:56:26 PM 35.0717 -115.2689 255° West 499 574 34,000  Level Los Angeles Center
Sat 05:57:28 PM 35.0342 -115.4375 255° West 509 586 34,000  Level Los Angeles Center
Sat 05:58:29 PM 34.9961 -115.6075 255° West 517 595 34,000 -49 Level Los Angeles Center
Sat 05:59:31 PM 34.9497 -115.8078 254° West 513 590 33,900 -1,210 Descending Los Angeles Center
Sat 06:00:33 PM 34.9119 -115.9736 255° West 511 588 31,500 -2,488 Descending Los Angeles Center
Sat 06:01:34 PM 34.8731 -116.1400 254° West 511 588 28,800 -2,683 Descending Los Angeles Center
Sat 06:02:36 PM 34.8325 -116.3069 254° West 514 592 26,000 -2,565 Descending Los Angeles Center
Sat 06:03:38 PM 34.7967 -116.4658 255° West 495 570 23,500 -2,419 Descending Los Angeles Center
Sat 06:04:40 PM 34.7817 -116.6228 263° West 472 543 21,000 -1,707 Descending Los Angeles Center
Sat 06:05:41 PM 34.7631 -116.8042 263° West 452 520 20,000 -488 Descending Los Angeles Center
Sat 06:06:43 PM 34.7481 -116.9547 263° West 448 516 20,000  Level Los Angeles Center
Sat 06:07:45 PM 34.7333 -117.1083 263° West 455 524 20,000 -484 Level Los Angeles Center
Sat 06:08:47 PM 34.7161 -117.2608 262° West 454 522 19,000 -1,171 Descending Los Angeles Center
Sat 06:09:48 PM 34.7014 -117.4106 263° West 447 514 17,600 -1,415 Descending Los Angeles Center
Sat 06:10:50 PM 34.6856 -117.5572 263° West 439 505 16,100 -1,258 Descending Los Angeles Center
Sat 06:11:52 PM 34.6708 -117.7019 263° West 431 496 15,000 -677 Descending Los Angeles Center
Sat 06:12:54 PM 34.6544 -117.8461 262° West 432 497 14,700 -618 Descending Los Angeles Center
Sat 06:14:08 PM 34.6364 -118.0144 263° West 417 480 13,600 -1,646 Descending Los Angeles Center
Sat 06:16:00 PM 34.5794 -118.2697 256° West  Level FlightAware Approximate
Sat 06:16:51 PM 34.5667 -118.3333 256° West 282 325 8,200  Level Southern California TRACON
Sat 06:17:51 PM 34.5500 -118.4167 256° West 271 312 8,000 -250 Descending Southern California TRACON
Sat 06:18:51 PM 34.5167 -118.5000 244° Southwest 285 328 7,700 -800 Descending Southern California TRACON
Sat 06:19:51 PM 34.4500 -118.5167 192° South 286 329 6,400 -1,450 Descending Southern California TRACON
Sat 06:20:51 PM 34.3667 -118.5000 171° South 244 281 4,800 -1,500 Descending Southern California TRACON
Sat 06:21:51 PM 34.3167 -118.5000 180° South 179 206 3,400 -1,200 Descending Southern California TRACON
Sat 06:22:51 PM 34.2833 -118.5000 180° South 135 155 2,400 -1,000 Descending Southern California TRACON
Sat 06:23:51 PM 34.2333 -118.5000 180° South 139 160 1,400 -1,000 Descending Southern California TRACON
Sat 06:25:00 PM 34.2098 -118.4900 180° South  Level Estimated
Sat 06:32:00 PM 34.2098 -118.4900 180° South  Level Estimated

Login

Don't have an account? Register now (free) for customized features, flight alerts, and more!